Google Maps JavaScript API Example
Pilot Flight Report # 91294 Submitted by : AST003 on 2018-05-15
Date: 2018-05-15Aircraft: Boeing 787-3 Dreamliner
Flight No.: Not AvailableDistance (Nm): 381.10
Departure: LFJR - MarceDestination: EDDF - Frankfurt/Main
 TimeFuelWeightSpeeds  
Out (Taxi)0529Z38641 lbs261942 lbs Flight RulesIFR
Off (Takeoff)0530Z 261658 lbs190 ktsFlight LevelFL329
On (Landing)0640Z 247953 lbs117 ktsVSTD-220 ft/min
In (Ramp)0641Z24613 lbs247917 lbs ZFW223300 lbs
Flight1.20  -  1:1013700 lbs  Pax0
Block1.20  -  1:1214028 lbs  Cargo0
Departure WeatherLFJR 150525Z 32810KT 52SM FEW054 21/11 A3004
Destination WeatherEDDF 150641Z 01915KT 62SM SKC 23/7 A2988
Flight Comments